Time;durP1;ratioP1;P1;durP2;ratioP2;P2;SDS_P1;SDS_P2;PMS_P1;PMS_P2;Temp;Humidity;BMP_temperature;BMP_pressure;BME280_temperature;BME280_humidity;BME280_pressure;Samples;Min_cycle;Max_cycle;Signal;HPM_P1;HPM_P2
2022/04/30 00:02:11;;;;;;;;;;;9.60;99.90;;;;;;7344312;19;112223;-86
2022/04/30 00:04:40;;;;;;;;;;;9.60;99.90;;;;;;7342499;19;108583;-87
2022/04/30 00:07:08;;;;;;;;;;;9.70;99.90;;;;;;7343124;19;107911;-87
2022/04/30 00:09:36;;;;;;;;;;;9.60;99.90;;;;;;7347848;19;108950;-85
2022/04/30 00:12:03;;;;;;;;;;;9.60;99.90;;;;;;7342905;19;108290;-86
2022/04/30 00:14:30;;;;;;;;;;;9.60;99.90;;;;;;7343911;19;113879;-86
2022/04/30 00:16:57;;;;;;;;;;;9.60;99.90;;;;;;7341930;19;107105;-87
2022/04/30 00:19:24;;;;;;;;;;;9.50;99.90;;;;;;7344320;19;107594;-87
2022/04/30 00:21:52;;;;;;;;;;;9.50;99.90;;;;;;7343866;19;109908;-86
2022/04/30 00:24:19;;;;;;;;;;;9.50;99.90;;;;;;7344708;19;108272;-86
2022/04/30 00:26:46;;;;;;;;;;;9.30;99.90;;;;;;7344660;19;107331;-86
2022/04/30 00:29:13;;;;;;;;;;;9.30;99.90;;;;;;7342094;19;107510;-86
2022/04/30 00:31:40;;;;;;;;;;;9.20;99.90;;;;;;7347878;19;107432;-86
2022/04/30 00:34:11;;;;;;;;;;;9.10;99.90;;;;;;7341077;19;108659;-86
2022/04/30 00:36:38;;;;;;;;;;;9.10;99.90;;;;;;7341738;19;107688;-86
2022/04/30 00:39:05;;;;;;;;;;;9.10;99.90;;;;;;7344461;19;107777;-87
2022/04/30 00:41:32;;;;;;;;;;;9.10;99.90;;;;;;7343843;19;107803;-86
2022/04/30 00:44:00;;;;;;;;;;;9.10;99.90;;;;;;7346016;19;107471;-86
2022/04/30 00:46:27;;;;;;;;;;;9.00;99.90;;;;;;7343868;19;110842;-87
2022/04/30 00:48:54;;;;;;;;;;;9.00;99.90;;;;;;7343003;19;109130;-86
2022/04/30 00:51:22;;;;;;;;;;;9.00;99.90;;;;;;7339906;19;107533;-86
2022/04/30 00:53:50;;;;;;;;;;;8.90;99.90;;;;;;7347120;19;110112;-86
2022/04/30 00:56:21;;;;;;;;;;;8.90;99.90;;;;;;7341014;19;107198;-86
2022/04/30 00:58:49;;;;;;;;;;;8.90;99.90;;;;;;7343690;19;110453;-87
2022/04/30 01:01:18;;;;;;;;;;;8.80;99.90;;;;;;7344082;19;108531;-85
2022/04/30 01:03:45;;;;;;;;;;;8.70;99.90;;;;;;7349276;19;108278;-86
2022/04/30 01:06:12;;;;;;;;;;;8.70;99.90;;;;;;7347569;19;110693;-86
2022/04/30 01:08:40;;;;;;;;;;;8.70;99.90;;;;;;7348716;19;111891;-87
2022/04/30 01:11:07;;;;;;;;;;;8.70;99.90;;;;;;7350295;19;107335;-86
2022/04/30 01:13:35;;;;;;;;;;;8.60;99.90;;;;;;7350678;19;107805;-87
2022/04/30 01:16:03;;;;;;;;;;;8.60;99.90;;;;;;7353822;19;109191;-86
2022/04/30 01:18:33;;;;;;;;;;;8.60;99.90;;;;;;7349519;19;108390;-87
2022/04/30 01:21:03;;;;;;;;;;;8.50;99.90;;;;;;7350318;19;108847;-86
2022/04/30 01:23:33;;;;;;;;;;;8.60;99.90;;;;;;7351721;19;109360;-87
2022/04/30 01:26:03;;;;;;;;;;;8.70;99.90;;;;;;7349188;19;107968;-87
2022/04/30 01:28:30;;;;;;;;;;;8.70;99.90;;;;;;7349223;19;109324;-85
2022/04/30 01:30:57;;;;;;;;;;;8.80;99.90;;;;;;7347910;19;107173;-87
2022/04/30 01:38:59;;;;;;;;;;;8.80;99.90;;;;;;7356983;19;108128;-87
2022/04/30 01:41:30;;;;;;;;;;;8.80;99.90;;;;;;7350710;19;109264;-86
2022/04/30 01:43:57;;;;;;;;;;;8.70;99.90;;;;;;7351371;19;107137;-86
2022/04/30 01:46:24;;;;;;;;;;;8.70;99.90;;;;;;7347395;19;107335;-87
2022/04/30 01:48:51;;;;;;;;;;;8.70;99.90;;;;;;7348457;19;108462;-87
2022/04/30 01:51:18;;;;;;;;;;;8.70;99.90;;;;;;7349682;19;107207;-86
2022/04/30 01:53:45;;;;;;;;;;;8.80;99.90;;;;;;7344929;19;108787;-86
2022/04/30 01:56:12;;;;;;;;;;;8.70;99.90;;;;;;7349174;19;111143;-87
2022/04/30 01:58:46;;;;;;;;;;;8.70;99.90;;;;;;7348754;19;108485;-87
2022/04/30 02:01:14;;;;;;;;;;;8.70;99.90;;;;;;7352558;19;108184;-87
2022/04/30 02:03:49;;;;;;;;;;;8.60;99.90;;;;;;7349257;19;107220;-87
2022/04/30 02:06:19;;;;;;;;;;;8.50;99.90;;;;;;7344648;19;107977;-87
2022/04/30 02:08:46;;;;;;;;;;;8.50;99.90;;;;;;7345922;19;108233;-87
2022/04/30 02:11:20;;;;;;;;;;;8.60;99.90;;;;;;7348391;19;107321;-87
2022/04/30 02:13:52;;;;;;;;;;;8.50;99.90;;;;;;7344969;19;108675;-87
2022/04/30 02:16:21;;;;;;;;;;;8.60;99.90;;;;;;7346788;19;108958;-87
2022/04/30 02:18:49;;;;;;;;;;;8.60;99.90;;;;;;7348557;19;107308;-87
2022/04/30 02:21:23;;;;;;;;;;;8.60;99.90;;;;;;7353863;19;108266;-87
2022/04/30 02:23:50;;;;;;;;;;;8.60;99.90;;;;;;7348740;19;107189;-87
2022/04/30 02:26:24;;;;;;;;;;;8.60;99.90;;;;;;7346637;19;108509;-87
2022/04/30 02:28:51;;;;;;;;;;;8.50;99.90;;;;;;7346356;19;112302;-87
2022/04/30 02:31:21;;;;;;;;;;;8.40;99.90;;;;;;7345073;19;107438;-87
2022/04/30 02:33:54;;;;;;;;;;;8.40;99.90;;;;;;7344402;19;108402;-87
2022/04/30 02:36:26;;;;;;;;;;;8.30;99.90;;;;;;7346448;19;109265;-87
2022/04/30 02:38:56;;;;;;;;;;;8.20;99.90;;;;;;7347415;19;108055;-87
2022/04/30 02:41:23;;;;;;;;;;;8.20;99.90;;;;;;7346818;19;108608;-87
2022/04/30 02:43:51;;;;;;;;;;;8.20;99.90;;;;;;7352716;19;109697;-87
2022/04/30 02:46:20;;;;;;;;;;;8.20;99.90;;;;;;7346306;19;108476;-88
2022/04/30 02:48:47;;;;;;;;;;;8.20;99.90;;;;;;7345451;19;110170;-87
2022/04/30 02:51:17;;;;;;;;;;;8.20;99.90;;;;;;7348494;19;107858;-88
2022/04/30 02:53:45;;;;;;;;;;;8.20;99.90;;;;;;7347810;19;108542;-87
2022/04/30 02:56:12;;;;;;;;;;;8.10;99.90;;;;;;7347027;19;109099;-87
2022/04/30 03:01:24;;;;;;;;;;;8.10;99.90;;;;;;7350199;19;108252;-87
2022/04/30 03:03:51;;;;;;;;;;;8.20;99.90;;;;;;7346766;19;108365;-88
2022/04/30 03:06:18;;;;;;;;;;;8.20;99.90;;;;;;7350119;19;107374;-86
2022/04/30 03:08:48;;;;;;;;;;;8.20;99.90;;;;;;7348007;19;109573;-87
2022/04/30 03:11:19;;;;;;;;;;;8.10;99.90;;;;;;7347740;19;107733;-87
2022/04/30 03:13:47;;;;;;;;;;;8.00;99.90;;;;;;7344567;19;110025;-87
2022/04/30 03:21:46;;;;;;;;;;;8.00;99.90;;;;;;7347795;19;108256;-88
2022/04/30 03:24:17;;;;;;;;;;;7.90;99.90;;;;;;7346415;19;108854;-87
2022/04/30 03:26:48;;;;;;;;;;;7.80;99.90;;;;;;7344328;19;106956;-87
2022/04/30 03:29:15;;;;;;;;;;;7.80;99.90;;;;;;7351110;19;107929;-89
2022/04/30 03:31:42;;;;;;;;;;;7.80;99.90;;;;;;7346804;19;107267;-87
2022/04/30 03:34:10;;;;;;;;;;;7.80;99.90;;;;;;7345970;19;108776;-88
2022/04/30 03:36:38;;;;;;;;;;;7.80;99.90;;;;;;7345264;19;109216;-88
2022/04/30 03:39:05;;;;;;;;;;;7.80;99.90;;;;;;7346537;19;107503;-87
2022/04/30 03:41:32;;;;;;;;;;;7.90;99.90;;;;;;7346272;19;107890;-88
2022/04/30 03:44:00;;;;;;;;;;;7.90;99.90;;;;;;7346556;19;108985;-87
2022/04/30 03:46:28;;;;;;;;;;;7.90;99.90;;;;;;7344046;19;108157;-87
2022/04/30 03:49:00;;;;;;;;;;;7.90;99.90;;;;;;7344522;19;108324;-87
2022/04/30 03:51:27;;;;;;;;;;;7.80;99.90;;;;;;7347488;19;109159;-87
2022/04/30 03:53:54;;;;;;;;;;;7.80;99.90;;;;;;7346378;19;108220;-88
2022/04/30 03:56:21;;;;;;;;;;;7.70;99.90;;;;;;7346964;19;108452;-87
2022/04/30 03:58:50;;;;;;;;;;;7.70;99.90;;;;;;7347851;19;107314;-88
2022/04/30 04:01:21;;;;;;;;;;;7.70;99.90;;;;;;7344684;19;107379;-87
2022/04/30 04:03:50;;;;;;;;;;;7.80;99.90;;;;;;7346392;19;109441;-87
2022/04/30 04:06:18;;;;;;;;;;;7.80;99.90;;;;;;7342502;19;107317;-88
2022/04/30 04:08:51;;;;;;;;;;;7.70;99.90;;;;;;7346334;19;107966;-88
2022/04/30 04:11:18;;;;;;;;;;;7.70;99.90;;;;;;7344240;19;107949;-88
2022/04/30 04:19:30;;;;;;;;;;;;;;;;;;;;;
2022/04/30 04:21:57;;;;;;;;;;;7.60;99.90;;;;;;7345797;19;107297;-88
2022/04/30 04:27:12;;;;;;;;;;;7.60;99.90;;;;;;7346638;19;107342;-88
2022/04/30 04:29:45;;;;;;;;;;;7.60;99.90;;;;;;7347334;19;107422;-89
2022/04/30 04:32:12;;;;;;;;;;;7.60;99.90;;;;;;7342804;19;109068;-89
2022/04/30 04:34:39;;;;;;;;;;;7.60;99.90;;;;;;7351112;19;107255;-88
2022/04/30 04:37:07;;;;;;;;;;;7.50;99.90;;;;;;7343646;19;109127;-88
2022/04/30 04:39:34;;;;;;;;;;;7.50;99.90;;;;;;7346717;19;108419;-88
2022/04/30 04:42:02;;;;;;;;;;;7.60;99.90;;;;;;7345160;19;108226;-87
2022/04/30 04:44:29;;;;;;;;;;;7.60;99.90;;;;;;7345877;19;108685;-87
2022/04/30 04:46:55;;;;;;;;;;;7.60;99.90;;;;;;7344864;19;108279;-87
2022/04/30 04:49:22;;;;;;;;;;;7.50;99.90;;;;;;7346703;19;109179;-88
2022/04/30 04:51:49;;;;;;;;;;;7.50;99.90;;;;;;7345486;19;108929;-88
2022/04/30 04:54:16;;;;;;;;;;;7.60;99.90;;;;;;7346426;19;107949;-88
2022/04/30 04:56:44;;;;;;;;;;;7.50;99.90;;;;;;7347739;19;108550;-88
2022/04/30 04:59:12;;;;;;;;;;;7.50;99.90;;;;;;7344960;19;107572;-89
2022/04/30 05:01:40;;;;;;;;;;;7.50;99.90;;;;;;7343691;19;107658;-87
2022/04/30 05:04:08;;;;;;;;;;;7.50;99.90;;;;;;7346528;19;108689;-88
2022/04/30 05:06:35;;;;;;;;;;;7.50;99.90;;;;;;7344304;19;107454;-88
2022/04/30 05:09:02;;;;;;;;;;;7.60;99.90;;;;;;7344155;19;107926;-88
2022/04/30 05:11:29;;;;;;;;;;;7.60;99.90;;;;;;7343042;19;108096;-88
2022/04/30 05:13:56;;;;;;;;;;;7.60;99.90;;;;;;7342821;19;108087;-88
2022/04/30 05:16:23;;;;;;;;;;;7.70;99.90;;;;;;7345168;19;108814;-88
2022/04/30 05:18:51;;;;;;;;;;;7.60;99.90;;;;;;7350051;19;113434;-88
2022/04/30 05:21:17;;;;;;;;;;;7.60;99.90;;;;;;7345267;19;107878;-91
2022/04/30 05:23:44;;;;;;;;;;;7.70;99.90;;;;;;7344102;19;107955;-87
2022/04/30 05:26:11;;;;;;;;;;;7.70;99.90;;;;;;7347193;19;108659;-90
2022/04/30 05:28:38;;;;;;;;;;;7.80;99.90;;;;;;7347812;19;108084;-91
2022/04/30 05:31:06;;;;;;;;;;;7.80;99.90;;;;;;7347130;19;109163;-91
2022/04/30 05:33:36;;;;;;;;;;;7.90;99.90;;;;;;7346981;19;107408;-91
2022/04/30 05:36:03;;;;;;;;;;;8.00;99.90;;;;;;7349620;19;109029;-91
2022/04/30 05:38:30;;;;;;;;;;;8.00;99.90;;;;;;7348723;19;112137;-89
2022/04/30 05:40:57;;;;;;;;;;;8.00;99.90;;;;;;7351839;19;107204;-90
2022/04/30 05:43:24;;;;;;;;;;;8.00;99.90;;;;;;7345328;19;112131;-90
2022/04/30 05:45:51;;;;;;;;;;;8.00;99.90;;;;;;7346725;19;108107;-90
2022/04/30 05:48:18;;;;;;;;;;;8.10;99.90;;;;;;7348562;19;109192;-89
2022/04/30 05:50:45;;;;;;;;;;;8.20;99.90;;;;;;7352994;19;108194;-89
2022/04/30 05:53:12;;;;;;;;;;;8.20;99.90;;;;;;7348826;19;108650;-89
2022/04/30 05:55:40;;;;;;;;;;;8.20;99.90;;;;;;7353159;19;109061;-89
2022/04/30 05:58:07;;;;;;;;;;;8.20;99.90;;;;;;7351551;19;107521;-89
2022/04/30 06:00:34;;;;;;;;;;;8.30;99.90;;;;;;7352719;19;107212;-90
2022/04/30 06:03:00;;;;;;;;;;;8.40;99.90;;;;;;7358152;19;108142;-88
2022/04/30 06:05:28;;;;;;;;;;;8.50;99.90;;;;;;7351583;19;108545;-90
2022/04/30 06:07:55;;;;;;;;;;;8.50;99.90;;;;;;7353010;19;107999;-88
2022/04/30 06:10:22;;;;;;;;;;;8.60;99.90;;;;;;7351696;19;112039;-88
2022/04/30 06:12:49;;;;;;;;;;;8.70;99.90;;;;;;7348603;19;107390;-88
2022/04/30 06:15:16;;;;;;;;;;;8.80;99.90;;;;;;7349250;19;107417;-87
2022/04/30 06:17:43;;;;;;;;;;;8.80;99.90;;;;;;7349247;19;109271;-88
2022/04/30 06:20:10;;;;;;;;;;;8.90;99.90;;;;;;7348447;19;107302;-88
2022/04/30 06:22:37;;;;;;;;;;;8.90;99.90;;;;;;7355411;19;108978;-87
2022/04/30 06:25:05;;;;;;;;;;;9.00;99.90;;;;;;7350765;19;107439;-89
2022/04/30 06:27:32;;;;;;;;;;;9.00;99.90;;;;;;7345765;19;108415;-86
2022/04/30 06:30:00;;;;;;;;;;;9.10;99.90;;;;;;7348102;19;107638;-87
2022/04/30 06:32:27;;;;;;;;;;;9.10;99.90;;;;;;7347799;19;107742;-88
2022/04/30 06:34:54;;;;;;;;;;;9.20;99.90;;;;;;7346163;19;109552;-87
2022/04/30 06:37:21;;;;;;;;;;;9.30;99.90;;;;;;7348751;19;109164;-86
2022/04/30 06:39:48;;;;;;;;;;;9.40;99.90;;;;;;7349373;19;107551;-87
2022/04/30 06:42:15;;;;;;;;;;;9.50;99.90;;;;;;7346229;19;108084;-87
2022/04/30 06:44:42;;;;;;;;;;;9.60;99.90;;;;;;7354230;19;111121;-87
2022/04/30 06:47:09;;;;;;;;;;;9.70;99.90;;;;;;7346936;19;108439;-87
2022/04/30 06:49:37;;;;;;;;;;;9.70;99.90;;;;;;7348880;19;108994;-87
2022/04/30 06:52:03;;;;;;;;;;;9.70;99.90;;;;;;7346735;19;107764;-86
2022/04/30 06:57:20;;;;;;;;;;;9.70;99.90;;;;;;7347231;19;112887;-87
2022/04/30 06:59:51;;;;;;;;;;;9.80;99.90;;;;;;7345237;19;108125;-87
2022/04/30 07:02:26;;;;;;;;;;;9.90;99.90;;;;;;7348014;19;108302;-91
2022/04/30 07:04:54;;;;;;;;;;;10.00;99.90;;;;;;7351742;19;108613;-91
2022/04/30 07:07:21;;;;;;;;;;;10.20;99.90;;;;;;7356832;19;107344;-91
2022/04/30 07:09:48;;;;;;;;;;;10.30;99.90;;;;;;7351002;19;111573;-89
2022/04/30 07:12:17;;;;;;;;;;;10.40;99.90;;;;;;7351369;19;107587;-91
2022/04/30 07:14:45;;;;;;;;;;;10.40;99.90;;;;;;7348709;19;108209;-91
2022/04/30 07:17:14;;;;;;;;;;;10.30;99.90;;;;;;7350111;19;109434;-91
2022/04/30 07:19:41;;;;;;;;;;;10.20;99.90;;;;;;7351807;19;107683;-92
2022/04/30 07:22:08;;;;;;;;;;;10.20;99.90;;;;;;7351456;19;108273;-91
2022/04/30 07:24:36;;;;;;;;;;;10.30;99.90;;;;;;7351961;19;108969;-91
2022/04/30 07:27:08;;;;;;;;;;;10.30;99.90;;;;;;7350989;19;108071;-92
2022/04/30 07:29:38;;;;;;;;;;;10.30;99.90;;;;;;7356660;19;107568;-92
2022/04/30 07:32:08;;;;;;;;;;;10.50;99.90;;;;;;7350273;19;107124;-90
2022/04/30 07:34:35;;;;;;;;;;;10.70;99.90;;;;;;7346439;19;109637;-89
2022/04/30 07:37:03;;;;;;;;;;;10.80;99.90;;;;;;7348426;19;108684;-89
2022/04/30 07:39:30;;;;;;;;;;;10.90;99.90;;;;;;7348866;19;107205;-89
2022/04/30 07:41:56;;;;;;;;;;;11.10;99.90;;;;;;7349060;19;107835;-89
2022/04/30 07:44:26;;;;;;;;;;;11.20;99.90;;;;;;7350164;19;108980;-88
2022/04/30 07:46:53;;;;;;;;;;;11.40;99.90;;;;;;7347137;19;107640;-87
2022/04/30 07:49:20;;;;;;;;;;;11.60;99.90;;;;;;7347087;19;108052;-88
2022/04/30 07:51:55;;;;;;;;;;;11.80;99.90;;;;;;7353736;19;113796;-88
2022/04/30 07:54:26;;;;;;;;;;;11.90;99.90;;;;;;7347289;19;108138;-88
2022/04/30 07:56:54;;;;;;;;;;;11.90;99.90;;;;;;7347245;19;108902;-87
2022/04/30 07:59:21;;;;;;;;;;;11.80;99.90;;;;;;7347530;19;107553;-87
2022/04/30 08:01:48;;;;;;;;;;;11.80;99.90;;;;;;7347133;19;109088;-88
2022/04/30 08:04:16;;;;;;;;;;;11.90;99.90;;;;;;7346032;19;108331;-88
2022/04/30 08:06:43;;;;;;;;;;;12.00;99.90;;;;;;7345025;19;107364;-89
2022/04/30 08:09:10;;;;;;;;;;;12.10;99.90;;;;;;7348563;19;110210;-88
2022/04/30 08:11:37;;;;;;;;;;;12.00;99.90;;;;;;7345259;19;107862;-88
2022/04/30 08:14:04;;;;;;;;;;;11.90;99.90;;;;;;7349406;19;107153;-88
2022/04/30 08:16:31;;;;;;;;;;;11.80;99.90;;;;;;7346146;19;108901;-87
2022/04/30 08:18:58;;;;;;;;;;;11.80;99.90;;;;;;7345237;19;107174;-88
2022/04/30 08:21:25;;;;;;;;;;;11.80;99.90;;;;;;7344475;19;107736;-87
2022/04/30 08:23:52;;;;;;;;;;;11.90;99.90;;;;;;7344180;19;109028;-87
2022/04/30 08:26:20;;;;;;;;;;;11.80;99.90;;;;;;7346242;19;108080;-87
2022/04/30 08:28:47;;;;;;;;;;;11.80;99.70;;;;;;7344672;19;108151;-85
2022/04/30 08:31:13;;;;;;;;;;;11.70;99.90;;;;;;7347185;19;109096;-88
2022/04/30 08:33:41;;;;;;;;;;;11.80;99.90;;;;;;7348957;19;107211;-87
2022/04/30 08:36:08;;;;;;;;;;;11.80;99.50;;;;;;7345227;19;108857;-87
2022/04/30 08:38:35;;;;;;;;;;;11.80;99.40;;;;;;7343406;19;107472;-82
2022/04/30 08:41:02;;;;;;;;;;;11.80;99.40;;;;;;7344703;19;108264;-82
2022/04/30 08:43:30;;;;;;;;;;;11.70;99.70;;;;;;7342730;19;109914;-83
2022/04/30 08:45:58;;;;;;;;;;;11.80;99.40;;;;;;7340288;19;107763;-83
2022/04/30 08:48:26;;;;;;;;;;;11.70;99.50;;;;;;7339110;19;108429;-83
2022/04/30 08:50:53;;;;;;;;;;;11.70;99.70;;;;;;7339102;19;109211;-83
2022/04/30 08:53:20;;;;;;;;;;;11.80;99.90;;;;;;7342338;19;108834;-83
2022/04/30 08:55:47;;;;;;;;;;;12.10;99.50;;;;;;7347842;19;108593;-84
2022/04/30 08:58:15;;;;;;;;;;;12.40;99.00;;;;;;7344564;19;107598;-83
2022/04/30 09:00:43;;;;;;;;;;;12.70;98.60;;;;;;7343031;19;111511;-83
2022/04/30 09:03:14;;;;;;;;;;;12.80;98.30;;;;;;7341308;19;108320;-84
2022/04/30 09:05:41;;;;;;;;;;;12.90;97.60;;;;;;7342121;19;108397;-83
2022/04/30 09:08:09;;;;;;;;;;;13.10;97.70;;;;;;7341873;19;108164;-83
2022/04/30 09:10:37;;;;;;;;;;;13.10;97.30;;;;;;7340907;19;109310;-84
2022/04/30 09:13:05;;;;;;;;;;;12.90;98.00;;;;;;7341497;19;109073;-84
2022/04/30 09:15:32;;;;;;;;;;;12.90;98.10;;;;;;7341644;19;108023;-83
2022/04/30 09:17:59;;;;;;;;;;;13.00;98.20;;;;;;7347162;19;109002;-84
2022/04/30 09:20:27;;;;;;;;;;;13.20;98.00;;;;;;7341505;19;108398;-84
2022/04/30 09:22:54;;;;;;;;;;;13.30;97.50;;;;;;7343657;19;108976;-85
2022/04/30 09:25:21;;;;;;;;;;;13.30;96.40;;;;;;7351061;19;107883;-84
2022/04/30 09:28:04;;;;;;;;;;;13.50;96.70;;;;;;7350940;19;108532;-84
2022/04/30 09:30:33;;;;;;;;;;;13.50;96.10;;;;;;7348309;19;108907;-84
2022/04/30 09:33:01;;;;;;;;;;;13.50;96.00;;;;;;7350038;19;108045;-84
2022/04/30 09:38:15;;;;;;;;;;;13.10;96.00;;;;;;7350021;19;108973;-84
2022/04/30 09:40:55;;;;;;;;;;;13.00;96.40;;;;;;7350310;19;108487;-84
2022/04/30 09:43:30;;;;;;;;;;;13.10;95.80;;;;;;7349557;19;109036;-84
2022/04/30 09:46:06;;;;;;;;;;;13.10;96.00;;;;;;7350644;19;107236;-84
2022/04/30 09:54:19;;;;;;;;;;;13.80;94.90;;;;;;7343745;19;107424;-85
2022/04/30 09:56:47;;;;;;;;;;;13.80;95.00;;;;;;7344501;19;107871;-83
2022/04/30 09:59:14;;;;;;;;;;;13.80;94.90;;;;;;7344809;19;109125;-83
2022/04/30 10:01:42;;;;;;;;;;;13.80;95.20;;;;;;7343715;19;107524;-84
2022/04/30 10:04:13;;;;;;;;;;;13.90;94.60;;;;;;7348963;19;110144;-84
2022/04/30 10:06:41;;;;;;;;;;;14.00;94.90;;;;;;7344911;19;108107;-85
2022/04/30 10:09:16;;;;;;;;;;;14.10;94.70;;;;;;7344485;19;111146;-84
2022/04/30 10:11:43;;;;;;;;;;;14.10;93.70;;;;;;7345162;19;109424;-84
2022/04/30 10:14:16;;;;;;;;;;;14.20;94.50;;;;;;7342821;19;107869;-84
2022/04/30 10:17:09;;;;;;;;;;;14.30;94.10;;;;;;7341636;19;111353;-85
2022/04/30 10:19:30;;;;;;;;;;;14.30;93.40;;;;;;7339781;19;112504;-83
2022/04/30 10:22:10;;;;;;;;;;;14.10;92.60;;;;;;7344998;19;108452;-84
2022/04/30 10:24:50;;;;;;;;;;;13.70;92.40;;;;;;7344275;19;107905;-83
2022/04/30 10:27:17;;;;;;;;;;;13.60;92.90;;;;;;7351478;19;109178;-83
2022/04/30 10:30:10;;;;;;;;;;;13.70;93.20;;;;;;7349345;19;107842;-83
2022/04/30 10:32:40;;;;;;;;;;;13.70;92.10;;;;;;7345361;19;112905;-84
2022/04/30 10:35:07;;;;;;;;;;;13.80;93.00;;;;;;7341728;19;107343;-83
2022/04/30 10:37:38;;;;;;;;;;;13.90;93.20;;;;;;7347677;19;108308;-84
2022/04/30 10:40:06;;;;;;;;;;;14.10;92.60;;;;;;7345839;19;108761;-84
2022/04/30 10:42:40;;;;;;;;;;;14.30;92.20;;;;;;7348489;19;108266;-84
2022/04/30 10:45:09;;;;;;;;;;;14.30;92.70;;;;;;7347233;19;107469;-84
2022/04/30 10:47:36;;;;;;;;;;;14.40;91.90;;;;;;7352435;19;107915;-84
2022/04/30 10:50:03;;;;;;;;;;;14.40;92.20;;;;;;7346932;19;108343;-83
2022/04/30 10:52:30;;;;;;;;;;;14.20;92.50;;;;;;7347364;19;108161;-83
2022/04/30 10:54:58;;;;;;;;;;;14.40;93.30;;;;;;7345957;19;109188;-84
2022/04/30 10:57:25;;;;;;;;;;;14.40;91.70;;;;;;7345940;19;108016;-84
2022/04/30 11:00:02;;;;;;;;;;;14.40;92.40;;;;;;7346001;19;108834;-84
2022/04/30 11:02:30;;;;;;;;;;;14.70;93.10;;;;;;7344397;19;109287;-84
2022/04/30 11:04:58;;;;;;;;;;;15.00;93.10;;;;;;7345510;19;107001;-84
2022/04/30 11:07:27;;;;;;;;;;;15.10;92.00;;;;;;7344445;19;109090;-83
2022/04/30 11:09:54;;;;;;;;;;;15.10;92.40;;;;;;7354228;19;107225;-84
2022/04/30 11:12:21;;;;;;;;;;;15.20;92.30;;;;;;7346625;19;108277;-82
2022/04/30 11:14:48;;;;;;;;;;;15.50;92.30;;;;;;7345762;19;108010;-83
2022/04/30 11:17:15;;;;;;;;;;;15.70;92.20;;;;;;7347290;19;107923;-84
2022/04/30 11:19:42;;;;;;;;;;;15.90;92.10;;;;;;7346265;19;108894;-84
2022/04/30 11:22:11;;;;;;;;;;;16.00;91.70;;;;;;7344704;19;108682;-83
2022/04/30 11:24:40;;;;;;;;;;;16.00;91.20;;;;;;7345014;19;107330;-84
2022/04/30 11:27:08;;;;;;;;;;;16.10;89.70;;;;;;7348113;19;108844;-84
2022/04/30 11:29:51;;;;;;;;;;;15.90;88.00;;;;;;7346829;19;107447;-84
2022/04/30 11:32:23;;;;;;;;;;;15.90;89.70;;;;;;7352046;19;107964;-84
2022/04/30 11:34:50;;;;;;;;;;;16.00;89.50;;;;;;7344796;19;107478;-84
2022/04/30 11:37:17;;;;;;;;;;;15.80;87.90;;;;;;7348186;19;108221;-84
2022/04/30 11:39:44;;;;;;;;;;;15.80;89.90;;;;;;7346024;19;109162;-83
2022/04/30 11:42:12;;;;;;;;;;;15.70;86.30;;;;;;7348177;19;107364;-83
2022/04/30 11:44:39;;;;;;;;;;;15.50;89.00;;;;;;7344666;19;108376;-83
2022/04/30 11:47:06;;;;;;;;;;;15.50;89.10;;;;;;7240334;19;113009;-83
2022/04/30 11:49:33;;;;;;;;;;;15.50;87.90;;;;;;7342939;19;108906;-84
2022/04/30 11:52:14;;;;;;;;;;;15.40;87.80;;;;;;7346635;19;107731;-83
2022/04/30 11:54:41;;;;;;;;;;;15.30;88.10;;;;;;7352382;19;109969;-83
2022/04/30 11:57:09;;;;;;;;;;;15.20;89.10;;;;;;7346930;19;107808;-84
2022/04/30 11:59:37;;;;;;;;;;;15.10;88.80;;;;;;7346390;19;108750;-86
2022/04/30 12:02:05;;;;;;;;;;;15.00;88.00;;;;;;7344478;19;107603;-83
2022/04/30 12:04:34;;;;;;;;;;;15.00;88.60;;;;;;7346647;19;107984;-83
2022/04/30 12:07:05;;;;;;;;;;;15.00;89.80;;;;;;7343575;19;109367;-83
2022/04/30 12:09:33;;;;;;;;;;;15.00;89.00;;;;;;7346155;19;107287;-84
2022/04/30 12:12:00;;;;;;;;;;;15.10;90.30;;;;;;7344524;19;107910;-83
2022/04/30 12:14:27;;;;;;;;;;;15.20;89.40;;;;;;7345520;19;108886;-85
2022/04/30 12:16:57;;;;;;;;;;;15.20;89.70;;;;;;7349444;19;108189;-84
2022/04/30 12:24:59;;;;;;;;;;;15.50;90.20;;;;;;7345412;19;108659;-84
2022/04/30 12:27:28;;;;;;;;;;;15.60;90.50;;;;;;7345625;19;109401;-83
2022/04/30 12:30:03;;;;;;;;;;;15.80;90.20;;;;;;7343264;19;107295;-84
2022/04/30 12:32:33;;;;;;;;;;;16.00;90.50;;;;;;7340377;19;108703;-83
2022/04/30 12:35:01;;;;;;;;;;;16.20;90.00;;;;;;7342072;19;108851;-84
2022/04/30 12:37:34;;;;;;;;;;;16.30;90.00;;;;;;7346708;19;107618;-84
2022/04/30 12:40:11;;;;;;;;;;;16.30;87.30;;;;;;7344108;19;108234;-86
2022/04/30 12:42:40;;;;;;;;;;;16.20;86.30;;;;;;7342435;19;107263;-85
2022/04/30 12:45:07;;;;;;;;;;;16.00;87.00;;;;;;7343990;19;107540;-86
2022/04/30 12:47:34;;;;;;;;;;;15.90;88.30;;;;;;7343477;19;110033;-85
2022/04/30 12:50:01;;;;;;;;;;;15.70;86.30;;;;;;7346666;19;107510;-86
2022/04/30 12:52:28;;;;;;;;;;;15.50;88.60;;;;;;7345816;19;108064;-87
2022/04/30 12:54:56;;;;;;;;;;;15.50;89.00;;;;;;7344115;19;108903;-84
2022/04/30 12:57:23;;;;;;;;;;;15.50;88.00;;;;;;7344621;19;107549;-84
2022/04/30 12:59:51;;;;;;;;;;;15.40;88.20;;;;;;7350203;19;107859;-81
2022/04/30 13:02:20;;;;;;;;;;;15.20;89.20;;;;;;7342611;19;107403;-81
2022/04/30 13:04:48;;;;;;;;;;;15.00;89.10;;;;;;7340722;19;108219;-81
2022/04/30 13:07:15;;;;;;;;;;;14.90;89.30;;;;;;7345170;19;108963;-81
2022/04/30 13:15:13;;;;;;;;;;;14.40;90.70;;;;;;7344004;19;108917;-81
2022/04/30 13:17:39;;;;;;;;;;;14.30;91.20;;;;;;7343979;19;107745;-81
2022/04/30 13:20:07;;;;;;;;;;;14.40;91.60;;;;;;7343916;19;108331;-81
2022/04/30 13:22:34;;;;;;;;;;;14.40;91.30;;;;;;7350056;19;109151;-80
2022/04/30 13:25:02;;;;;;;;;;;14.40;91.70;;;;;;7344065;19;107892;-81
2022/04/30 13:27:30;;;;;;;;;;;14.40;91.70;;;;;;7344188;19;109197;-80
2022/04/30 13:29:57;;;;;;;;;;;14.40;92.10;;;;;;7344622;19;107508;-85
2022/04/30 13:32:24;;;;;;;;;;;14.40;92.00;;;;;;7344194;19;107822;-87
2022/04/30 13:34:51;;;;;;;;;;;14.50;92.30;;;;;;7343597;19;109641;-87
2022/04/30 13:37:18;;;;;;;;;;;14.70;92.20;;;;;;7344144;19;108237;-87
2022/04/30 13:39:45;;;;;;;;;;;14.90;91.60;;;;;;7345398;19;108815;-87
2022/04/30 13:42:13;;;;;;;;;;;14.80;91.80;;;;;;7345108;19;109351;-87
2022/04/30 13:44:40;;;;;;;;;;;14.80;91.40;;;;;;7351173;19;108800;-87
2022/04/30 13:47:07;;;;;;;;;;;14.90;91.70;;;;;;7344602;19;108013;-87
2022/04/30 13:49:34;;;;;;;;;;;15.10;91.40;;;;;;7345584;19;107210;-86
2022/04/30 13:52:02;;;;;;;;;;;15.10;91.10;;;;;;7345397;19;108072;-88
2022/04/30 13:54:29;;;;;;;;;;;15.10;91.50;;;;;;7344666;19;108430;-87
2022/04/30 13:56:57;;;;;;;;;;;15.00;91.00;;;;;;7342464;19;107564;-87
2022/04/30 13:59:25;;;;;;;;;;;15.00;91.40;;;;;;7337930;19;108016;-87
2022/04/30 14:01:53;;;;;;;;;;;15.00;91.20;;;;;;7339590;19;108739;-89
2022/04/30 14:04:20;;;;;;;;;;;15.10;91.40;;;;;;7338146;19;107178;-88
2022/04/30 14:06:47;;;;;;;;;;;15.10;91.00;;;;;;7343978;19;107691;-89
2022/04/30 14:09:14;;;;;;;;;;;15.10;90.60;;;;;;7340804;19;107587;-88
2022/04/30 14:11:41;;;;;;;;;;;15.00;91.30;;;;;;7347461;19;107205;-88
2022/04/30 14:16:54;;;;;;;;;;;15.10;91.40;;;;;;7345688;19;108075;-88
2022/04/30 14:19:21;;;;;;;;;;;15.20;91.40;;;;;;7350430;19;106967;-88
2022/04/30 14:21:48;;;;;;;;;;;15.20;90.80;;;;;;7351021;19;111400;-90
2022/04/30 14:24:15;;;;;;;;;;;15.20;90.90;;;;;;7347673;19;107285;-87
2022/04/30 14:26:53;;;;;;;;;;;15.30;90.90;;;;;;7346703;19;108529;-88
2022/04/30 14:29:20;;;;;;;;;;;15.30;91.10;;;;;;7351822;19;109460;-89
2022/04/30 14:31:47;;;;;;;;;;;15.40;90.70;;;;;;7346557;19;107711;-88
2022/04/30 14:34:14;;;;;;;;;;;15.40;91.00;;;;;;7348004;19;109298;-87
2022/04/30 14:36:41;;;;;;;;;;;15.30;90.80;;;;;;7348349;19;107966;-88
2022/04/30 14:39:08;;;;;;;;;;;15.10;91.50;;;;;;7348992;19;107484;-88
2022/04/30 14:41:35;;;;;;;;;;;15.00;91.40;;;;;;7350934;19;110020;-88
2022/04/30 14:44:02;;;;;;;;;;;15.10;91.30;;;;;;7349990;19;107269;-87
2022/04/30 14:46:29;;;;;;;;;;;15.20;91.20;;;;;;7349171;19;111418;-88
2022/04/30 14:48:56;;;;;;;;;;;15.30;91.00;;;;;;7349992;19;109017;-87
2022/04/30 14:51:23;;;;;;;;;;;15.50;91.30;;;;;;7355281;19;107533;-88
2022/04/30 14:53:50;;;;;;;;;;;15.50;90.20;;;;;;7348586;19;109094;-87
2022/04/30 14:56:17;;;;;;;;;;;15.40;90.20;;;;;;7348717;19;107045;-88
2022/04/30 14:58:44;;;;;;;;;;;15.40;90.60;;;;;;7348811;19;109252;-88
2022/04/30 15:01:11;;;;;;;;;;;15.40;90.60;;;;;;7349453;19;109343;-88
2022/04/30 15:03:38;;;;;;;;;;;15.50;90.50;;;;;;7350139;19;107126;-88
2022/04/30 15:06:05;;;;;;;;;;;15.60;90.40;;;;;;7347357;19;107268;-89